createdAt,value
2018-04-25T00:00:07.380Z,5.50
2018-04-25T00:02:36.951Z,4.93
2018-04-25T00:05:19.030Z,5.27
2018-04-25T00:07:47.872Z,5.40
2018-04-25T00:10:16.774Z,4.70
2018-04-25T00:12:45.539Z,4.57
2018-04-25T00:15:14.171Z,4.40
2018-04-25T00:17:43.319Z,5.00
2018-04-25T00:20:15.171Z,4.30
2018-04-25T00:22:43.828Z,4.07
2018-04-25T00:25:18.013Z,4.73
2018-04-25T00:27:48.283Z,4.57
2018-04-25T00:30:22.075Z,4.47
2018-04-25T00:32:50.762Z,4.80
2018-04-25T00:35:24.412Z,4.73
2018-04-25T00:37:53.255Z,4.90
2018-04-25T00:40:24.955Z,4.97
2018-04-25T00:42:53.802Z,5.00
2018-04-25T00:45:26.756Z,4.67
2018-04-25T00:47:56.022Z,4.70
2018-04-25T00:50:37.892Z,4.70
2018-04-25T00:53:07.599Z,4.90
2018-04-25T00:55:37.099Z,4.87
2018-04-25T00:58:06.802Z,4.90
2018-04-25T01:00:35.343Z,4.70
2018-04-25T01:03:03.953Z,4.50
2018-04-25T01:05:35.579Z,5.20
2018-04-25T01:08:04.059Z,4.87
2018-04-25T01:10:37.403Z,5.10
2018-04-25T01:13:06.673Z,4.60
2018-04-25T01:15:40.083Z,5.37
2018-04-25T01:18:08.644Z,5.23
2018-04-25T01:20:41.730Z,5.30
2018-04-25T01:23:11.163Z,5.40
2018-04-25T01:25:57.202Z,6.13
2018-04-25T01:28:26.571Z,5.30
2018-04-25T01:30:55.244Z,5.43
2018-04-25T01:33:24.639Z,5.23
2018-04-25T01:35:53.679Z,5.43
2018-04-25T01:38:22.608Z,5.00
2018-04-25T01:40:52.860Z,5.00
2018-04-25T01:43:22.218Z,5.27
2018-04-25T01:46:00.575Z,5.37
2018-04-25T01:48:29.978Z,5.47
2018-04-25T01:50:57.863Z,5.23
2018-04-25T01:53:37.479Z,5.50
2018-04-25T01:56:17.689Z,5.33
2018-04-25T01:59:01.243Z,5.37
2018-04-25T02:01:28.854Z,5.60
2018-04-25T02:04:02.202Z,5.33
2018-04-25T02:06:31.416Z,5.07
2018-04-25T02:09:04.367Z,4.83
2018-04-25T02:11:33.220Z,4.60
2018-04-25T02:14:01.695Z,5.20
2018-04-25T02:16:30.151Z,5.57
2018-04-25T02:19:00.273Z,4.87
2018-04-25T02:21:29.895Z,4.83
2018-04-25T02:23:59.107Z,5.67
2018-04-25T02:26:28.326Z,5.47
2018-04-25T02:28:57.173Z,5.23
2018-04-25T02:31:25.704Z,5.87
2018-04-25T02:33:54.167Z,6.20
2018-04-25T02:36:23.644Z,6.13
2018-04-25T02:38:52.119Z,6.53
2018-04-25T02:41:21.406Z,6.13
2018-04-25T02:43:51.652Z,5.97
2018-04-25T02:46:23.386Z,6.70
2018-04-25T02:48:51.867Z,7.03
2018-04-25T02:51:24.597Z,6.90
2018-04-25T02:53:53.454Z,7.83
2018-04-25T02:56:26.804Z,8.03
2018-04-25T02:58:55.656Z,7.30
2018-04-25T03:01:28.548Z,6.87
2018-04-25T03:03:57.063Z,7.37
2018-04-25T03:06:29.836Z,7.30
2018-04-25T03:08:58.290Z,7.80
2018-04-25T03:11:33.356Z,7.57
2018-04-25T03:14:02.852Z,6.90
2018-04-25T03:16:35.916Z,9.07
2018-04-25T03:19:04.668Z,8.40
2018-04-25T03:21:37.711Z,8.97
2018-04-25T03:24:06.187Z,8.10
2018-04-25T03:26:39.454Z,7.97
2018-04-25T03:29:08.445Z,8.40
2018-04-25T03:31:42.392Z,9.27
2018-04-25T03:34:11.992Z,9.10
2018-04-25T03:36:53.631Z,9.30
2018-04-25T03:39:23.604Z,8.27
2018-04-25T03:41:53.486Z,8.50
2018-04-25T03:44:21.930Z,8.40
2018-04-25T03:46:50.376Z,8.87
2018-04-25T03:49:19.934Z,8.03
2018-04-25T03:51:52.968Z,9.20
2018-04-25T03:54:22.227Z,10.23
2018-04-25T03:56:55.299Z,9.63
2018-04-25T03:59:24.518Z,8.30
2018-04-25T04:01:58.245Z,9.47
2018-04-25T04:04:26.725Z,9.13
2018-04-25T04:06:59.270Z,10.00
2018-04-25T04:09:29.013Z,9.93
2018-04-25T04:12:11.283Z,10.23
2018-04-25T04:14:40.762Z,9.43
2018-04-25T04:17:09.610Z,10.00
2018-04-25T04:19:38.456Z,9.33
2018-04-25T04:22:08.740Z,9.73
2018-04-25T04:24:37.190Z,9.07
2018-04-25T04:27:10.420Z,10.23
2018-04-25T04:29:39.230Z,10.30
2018-04-25T04:32:14.263Z,10.20
2018-04-25T04:34:43.900Z,10.87
2018-04-25T04:37:17.411Z,9.73
2018-04-25T04:39:46.884Z,10.03
2018-04-25T04:42:18.711Z,10.20
2018-04-25T04:44:48.948Z,10.63
2018-04-25T04:47:21.153Z,9.27
2018-04-25T04:49:49.612Z,10.07
2018-04-25T04:52:23.319Z,10.00
2018-04-25T04:54:52.805Z,10.13
2018-04-25T04:57:24.420Z,10.57
2018-04-25T04:59:54.312Z,9.83
2018-04-25T05:02:26.731Z,9.87
2018-04-25T05:04:55.258Z,10.03
2018-04-25T05:07:28.548Z,9.27
2018-04-25T05:09:58.086Z,9.07
2018-04-25T05:12:29.924Z,10.40
2018-04-25T05:14:59.054Z,9.60
2018-04-25T05:17:32.524Z,8.80
2018-04-25T05:20:02.135Z,9.30
2018-04-25T05:22:35.465Z,8.43
2018-04-25T05:25:03.958Z,8.60
2018-04-25T05:27:36.644Z,8.70
2018-04-25T05:30:07.094Z,8.37
2018-04-25T05:32:39.111Z,7.70
2018-04-25T05:35:08.319Z,7.83
2018-04-25T05:37:42.183Z,6.90
2018-04-25T05:40:10.655Z,6.43
2018-04-25T05:42:43.572Z,6.77
2018-04-25T05:45:13.935Z,6.23
2018-04-25T05:47:45.721Z,5.93
2018-04-25T05:50:14.603Z,6.27
2018-04-25T05:52:48.235Z,5.60
2018-04-25T05:55:17.738Z,4.90
2018-04-25T05:57:50.555Z,3.13
2018-04-25T06:00:19.693Z,3.00
2018-04-25T06:02:52.543Z,3.50
2018-04-25T06:05:21.803Z,3.20
2018-04-25T06:07:55.945Z,3.10
2018-04-25T06:10:24.804Z,3.50
2018-04-25T06:13:06.476Z,3.87
2018-04-25T06:15:35.218Z,3.47
2018-04-25T06:18:03.668Z,3.87
2018-04-25T06:20:33.154Z,4.63
2018-04-25T06:23:04.819Z,4.67
2018-04-25T06:25:33.708Z,3.77
2018-04-25T06:28:14.983Z,4.17
2018-04-25T06:30:44.248Z,4.70
2018-04-25T06:33:13.476Z,4.90
2018-04-25T06:35:42.334Z,4.90
2018-04-25T06:38:11.563Z,4.73
2018-04-25T06:40:41.531Z,4.20
2018-04-25T06:43:14.664Z,3.90
2018-04-25T06:45:43.438Z,3.60
2018-04-25T06:48:24.720Z,3.53
2018-04-25T06:50:53.831Z,3.13
2018-04-25T06:53:23.818Z,3.70
2018-04-25T06:55:53.865Z,3.13
2018-04-25T06:58:24.713Z,3.27
2018-04-25T07:00:53.573Z,3.50
2018-04-25T07:03:22.098Z,3.47
2018-04-25T07:05:51.959Z,3.40
2018-04-25T07:08:25.362Z,3.33
2018-04-25T07:10:53.938Z,3.20
2018-04-25T07:13:25.225Z,3.40
2018-04-25T07:15:54.048Z,3.70
2018-04-25T07:18:36.219Z,3.10
2018-04-25T07:21:05.099Z,2.30
2018-04-25T07:23:33.625Z,2.60
2018-04-25T07:26:02.103Z,2.60
2018-04-25T07:28:32.952Z,3.17
2018-04-25T07:31:02.184Z,3.07
2018-04-25T07:33:43.031Z,3.00
2018-04-25T07:36:12.795Z,3.50
2018-04-25T07:38:42.039Z,3.00
2018-04-25T07:41:11.272Z,2.87
2018-04-25T07:43:40.807Z,2.60
2018-04-25T07:46:10.410Z,2.70
2018-04-25T07:48:42.220Z,3.40
2018-04-25T07:51:12.097Z,3.10
2018-04-25T07:53:45.144Z,3.00
2018-04-25T07:56:14.513Z,3.10
2018-04-25T07:58:45.944Z,2.90
2018-04-25T08:01:14.812Z,2.77
2018-04-25T08:03:57.132Z,2.40
2018-04-25T08:06:26.460Z,2.50
2018-04-25T08:08:55.399Z,2.30
2018-04-25T08:11:24.273Z,2.57
2018-04-25T08:13:59.308Z,1.80
2018-04-25T08:16:34.831Z,2.03
2018-04-25T08:22:32.954Z,2.27
2018-04-25T08:25:01.526Z,2.00
2018-04-25T08:27:30.093Z,2.40
2018-04-25T08:30:01.911Z,2.40
2018-04-25T08:32:31.462Z,2.40
2018-04-25T08:35:04.472Z,2.20
2018-04-25T08:37:34.071Z,2.20
2018-04-25T08:40:07.358Z,1.90
2018-04-25T08:42:35.871Z,2.20
2018-04-25T08:45:17.635Z,1.73
2018-04-25T08:47:47.091Z,1.87
2018-04-25T08:50:15.949Z,1.77
2018-04-25T08:52:45.128Z,2.17
2018-04-25T08:55:15.356Z,2.20
2018-04-25T08:57:44.783Z,2.10
2018-04-25T09:00:17.182Z,2.13
2018-04-25T09:02:46.889Z,2.87
2018-04-25T09:05:20.039Z,2.07
2018-04-25T09:07:48.496Z,2.13
2018-04-25T09:10:21.503Z,2.43
2018-04-25T09:12:51.015Z,2.37
2018-04-25T09:15:31.976Z,2.53
2018-04-25T09:18:00.718Z,2.20
2018-04-25T09:20:30.708Z,2.27
2018-04-25T09:22:59.217Z,2.30
2018-04-25T09:25:29.179Z,2.10
2018-04-25T09:27:58.451Z,2.03
2018-04-25T09:30:31.041Z,2.00
2018-04-25T09:33:00.708Z,2.23
2018-04-25T09:35:32.819Z,2.00
2018-04-25T09:38:01.360Z,2.47
2018-04-25T09:40:34.341Z,2.47
2018-04-25T09:43:03.603Z,2.27
2018-04-25T09:45:37.074Z,2.67
2018-04-25T09:48:05.726Z,2.50
2018-04-25T09:50:38.355Z,2.80
2018-04-25T09:53:08.141Z,2.60
2018-04-25T09:55:40.003Z,2.57
2018-04-25T09:58:08.912Z,2.87
2018-04-25T10:00:46.747Z,2.47
2018-04-25T10:03:19.823Z,2.37
2018-04-25T10:05:48.758Z,3.00
2018-04-25T10:08:18.802Z,2.60
2018-04-25T10:10:48.352Z,2.40
2018-04-25T10:13:17.234Z,5.77
2018-04-25T10:15:58.447Z,8.10
2018-04-25T10:18:28.308Z,8.43
2018-04-25T10:20:56.855Z,7.90
2018-04-25T10:23:25.365Z,8.07
2018-04-25T10:25:55.448Z,7.47
2018-04-25T10:28:24.750Z,7.50
2018-04-25T10:30:58.008Z,7.70
2018-04-25T10:33:28.003Z,7.20
2018-04-25T10:36:00.715Z,8.40
2018-04-25T10:38:29.212Z,8.10
2018-04-25T10:41:04.144Z,7.67
2018-04-25T10:43:33.693Z,7.80
2018-04-25T10:46:14.731Z,7.30
2018-04-25T10:48:43.940Z,7.43
2018-04-25T10:51:13.662Z,7.13
2018-04-25T10:53:43.644Z,6.13
2018-04-25T10:56:14.136Z,6.13
2018-04-25T10:58:43.831Z,5.53
2018-04-25T11:01:16.544Z,5.70
2018-04-25T11:03:45.979Z,5.13
2018-04-25T11:44:47.425Z,5.07
2018-04-25T11:47:16.811Z,4.40
2018-04-25T11:49:45.760Z,4.77
2018-04-25T11:52:15.007Z,4.20
2018-04-25T11:54:44.723Z,5.43
2018-04-25T11:57:13.973Z,5.13
2018-04-25T11:59:42.576Z,5.10
2018-04-25T12:02:12.175Z,4.93
2018-04-25T12:04:42.198Z,5.27
2018-04-25T12:07:10.699Z,4.97
2018-04-25T12:09:46.599Z,4.80
2018-04-25T12:12:16.090Z,5.00
2018-04-25T12:14:45.626Z,4.77
2018-04-25T12:17:14.871Z,4.60
2018-04-25T12:19:51.846Z,4.73
2018-04-25T12:22:20.288Z,5.23
2018-04-25T12:24:52.815Z,4.73
2018-04-25T12:27:21.306Z,5.17
2018-04-25T12:29:54.862Z,5.63
2018-04-25T12:32:24.648Z,5.27
2018-04-25T12:34:57.311Z,5.60
2018-04-25T12:37:26.227Z,4.60
2018-04-25T12:39:59.405Z,5.20
2018-04-25T12:42:29.054Z,5.17
2018-04-25T12:45:01.729Z,5.60
2018-04-25T12:47:32.507Z,5.63
2018-04-25T12:50:05.381Z,4.70
2018-04-25T12:52:33.835Z,4.97
2018-04-25T12:55:06.279Z,4.50
2018-04-25T12:57:34.893Z,4.40
2018-04-25T13:00:10.918Z,4.43
2018-04-25T13:02:39.444Z,3.90
2018-04-25T13:05:13.400Z,3.97
2018-04-25T13:07:42.753Z,3.87
2018-04-25T13:10:24.122Z,3.90
2018-04-25T13:12:52.668Z,4.00
2018-04-25T13:15:22.177Z,4.40
2018-04-25T13:17:51.667Z,5.57
2018-04-25T13:20:21.887Z,4.53
2018-04-25T13:22:51.119Z,4.13
2018-04-25T13:25:22.956Z,4.40
2018-04-25T13:27:52.495Z,3.90
2018-04-25T13:30:25.002Z,3.97
2018-04-25T13:32:53.943Z,4.07
2018-04-25T13:35:35.083Z,5.10
2018-04-25T13:38:04.609Z,4.37
2018-04-25T13:40:34.596Z,5.43
2018-04-25T13:43:05.441Z,4.97
2018-04-25T13:45:34.390Z,5.07
2018-04-25T13:48:04.341Z,5.63
2018-04-25T13:50:34.689Z,6.53
2018-04-25T13:53:04.022Z,6.00
2018-04-25T13:55:35.982Z,6.20
2018-04-25T13:58:04.677Z,6.50
2018-04-25T14:00:38.487Z,5.67
2018-04-25T14:03:08.311Z,5.77
2018-04-25T14:05:40.688Z,6.27
2018-04-25T14:08:11.122Z,5.27
2018-04-25T14:10:43.264Z,5.10
2018-04-25T14:13:11.746Z,5.07
2018-04-25T14:15:45.170Z,4.40
2018-04-25T14:18:13.651Z,5.03
2018-04-25T14:20:47.485Z,4.97
2018-04-25T14:23:17.126Z,4.23
2018-04-25T14:25:50.348Z,3.93
2018-04-25T14:28:18.832Z,3.80
2018-04-25T14:30:52.581Z,4.27
2018-04-25T14:33:22.402Z,3.57
2018-04-25T14:36:03.440Z,5.17
2018-04-25T14:38:31.968Z,4.70
2018-04-25T14:41:00.760Z,4.57
2018-04-25T14:43:30.967Z,4.63
2018-04-25T14:45:59.603Z,4.40
2018-04-25T14:48:29.202Z,4.80
2018-04-25T14:51:03.119Z,5.37
2018-04-25T14:53:31.618Z,4.50
2018-04-25T14:56:05.643Z,4.67
2018-04-25T14:58:36.031Z,4.30
2018-04-25T15:01:08.545Z,4.50
2018-04-25T15:03:38.143Z,4.53
2018-04-25T15:06:10.436Z,4.00
2018-04-25T15:08:40.015Z,3.57
2018-04-25T15:11:13.858Z,4.00
2018-04-25T15:13:42.342Z,3.73
2018-04-25T15:16:24.143Z,4.00
2018-04-25T15:18:54.042Z,3.40
2018-04-25T15:21:23.629Z,3.03
2018-04-25T15:23:52.544Z,2.80
2018-04-25T15:26:21.738Z,2.53
2018-04-25T15:28:51.719Z,3.20
2018-04-25T15:31:21.629Z,4.20
2018-04-25T15:33:50.363Z,4.13
2018-04-25T15:36:25.765Z,3.70
2018-04-25T15:38:55.446Z,3.90
2018-04-25T15:54:45.249Z,3.60
2018-04-25T15:57:13.726Z,3.33
2018-04-25T15:59:43.570Z,3.23
2018-04-25T16:02:12.076Z,2.27
2018-04-25T16:04:41.682Z,2.40
2018-04-25T16:07:11.637Z,2.13
2018-04-25T16:09:40.899Z,2.10
2018-04-25T16:12:09.381Z,2.20
2018-04-25T16:14:51.407Z,2.20
2018-04-25T16:17:19.954Z,2.53
2018-04-25T16:19:49.977Z,1.90
2018-04-25T16:22:19.222Z,1.80
2018-04-25T16:24:49.251Z,2.13
2018-04-25T16:27:18.999Z,2.00
2018-04-25T16:29:50.549Z,2.10
2018-04-25T16:32:19.798Z,2.13
2018-04-25T16:34:52.199Z,2.37
2018-04-25T16:37:20.927Z,1.70
2018-04-25T16:39:53.912Z,1.57
2018-04-25T16:42:22.691Z,1.80
2018-04-25T16:44:55.932Z,1.50
2018-04-25T16:47:24.763Z,1.77
2018-04-25T16:50:00.307Z,2.00
2018-04-25T16:52:29.149Z,2.00
2018-04-25T16:55:01.953Z,1.60
2018-04-25T16:57:30.808Z,2.63
2018-04-25T17:00:12.643Z,1.70
2018-04-25T17:02:42.396Z,1.67
2018-04-25T17:05:10.902Z,1.50
2018-04-25T17:07:40.906Z,2.00
2018-04-25T17:10:10.685Z,2.07
2018-04-25T17:12:39.162Z,1.50
2018-04-25T17:15:12.491Z,1.70
2018-04-25T17:17:41.263Z,1.90
2018-04-25T17:20:14.518Z,1.63
2018-04-25T17:22:43.756Z,1.53
2018-04-25T17:25:17.256Z,1.50
2018-04-25T17:27:45.754Z,1.70
2018-04-25T17:30:18.495Z,1.90
2018-04-25T17:32:48.251Z,1.67
2018-04-25T17:35:21.702Z,1.40
2018-04-25T17:37:50.161Z,1.50
2018-04-25T17:40:32.211Z,1.67
2018-04-25T17:43:01.127Z,1.43
2018-04-25T17:45:31.446Z,1.53
2018-04-25T17:48:00.958Z,1.90
2018-04-25T17:50:30.192Z,1.30
2018-04-25T17:52:59.612Z,2.00
2018-04-25T17:55:30.377Z,1.40
2018-04-25T17:57:59.143Z,1.60
2018-04-25T18:00:40.205Z,1.60
2018-04-25T18:03:09.806Z,1.70
2018-04-25T18:05:39.214Z,1.20
2018-04-25T18:08:07.947Z,1.70
2018-04-25T18:10:37.864Z,1.50
2018-04-25T18:13:07.367Z,1.70
2018-04-25T18:15:37.517Z,2.20
2018-04-25T18:18:06.306Z,2.40
2018-04-25T18:20:47.494Z,2.50
2018-04-25T18:23:15.963Z,4.23
2018-04-25T18:25:44.716Z,2.80
2018-04-25T18:28:13.942Z,2.70
2018-04-25T18:30:44.518Z,2.70
2018-04-25T18:33:14.018Z,2.60
2018-04-25T18:35:47.001Z,2.90
2018-04-25T18:38:16.534Z,2.60
2018-04-25T18:40:50.067Z,2.60
2018-04-25T18:43:18.923Z,2.50
2018-04-25T18:45:51.612Z,2.17
2018-04-25T18:48:20.839Z,1.90
2018-04-25T18:50:54.011Z,2.17
2018-04-25T18:53:23.498Z,1.90
2018-04-25T18:56:05.404Z,1.90
2018-04-25T18:58:34.128Z,1.83
2018-04-25T19:01:02.665Z,1.63
2018-04-25T19:03:31.157Z,1.67
2018-04-25T19:06:04.529Z,1.90
2018-04-25T19:08:34.195Z,1.33
2018-04-25T19:11:06.280Z,1.70
2018-04-25T19:13:35.004Z,1.60
2018-04-25T19:16:08.395Z,1.70
2018-04-25T19:18:37.623Z,1.83
2018-04-25T19:21:10.887Z,1.60
2018-04-25T19:23:40.119Z,1.50
2018-04-25T19:26:21.351Z,1.40
2018-04-25T19:28:50.083Z,1.50
2018-04-25T19:31:19.003Z,2.00
2018-04-25T19:33:48.967Z,1.60
2018-04-25T19:36:18.722Z,1.50
2018-04-25T19:38:47.195Z,1.80
2018-04-25T19:41:28.528Z,1.87
2018-04-25T19:43:58.323Z,1.43
2018-04-25T19:46:26.822Z,1.30
2018-04-25T19:48:56.426Z,1.60
2018-04-25T19:51:26.678Z,1.40
2018-04-25T19:53:55.128Z,1.20
2018-04-25T19:56:25.987Z,1.70
2018-04-25T19:58:54.704Z,2.13
2018-04-25T20:01:27.828Z,2.40
2018-04-25T20:03:57.414Z,2.53
2018-04-25T20:06:30.220Z,3.80
2018-04-25T20:08:59.126Z,3.27
2018-04-25T20:11:32.617Z,2.53
2018-04-25T20:27:06.092Z,1.80
2018-04-25T20:29:40.783Z,1.97
2018-04-25T20:32:11.951Z,1.73
2018-04-25T20:34:43.640Z,2.10
2018-04-25T20:37:13.253Z,1.77
2018-04-25T20:39:46.319Z,1.70
2018-04-25T20:42:14.835Z,1.83
2018-04-25T20:44:47.739Z,1.87
2018-04-25T20:47:16.536Z,1.37
2018-04-25T20:49:51.320Z,2.07
2018-04-25T20:52:21.331Z,2.57
2018-04-25T20:54:53.016Z,1.37
2018-04-25T20:57:23.068Z,1.50
2018-04-25T20:59:55.337Z,2.03
2018-04-25T21:02:25.104Z,1.87
2018-04-25T21:05:06.447Z,1.97
2018-04-25T21:07:35.567Z,1.40
2018-04-25T21:10:05.987Z,1.60
2018-04-25T21:12:34.464Z,1.50
2018-04-25T21:15:04.740Z,1.67
2018-04-25T21:17:33.995Z,1.73
2018-04-25T21:20:04.541Z,1.33
2018-04-25T21:22:34.031Z,1.60
2018-04-25T21:25:07.442Z,1.30
2018-04-25T21:27:36.307Z,1.50
2018-04-25T21:30:10.351Z,1.90
2018-04-25T21:32:38.820Z,1.40
2018-04-25T21:35:12.202Z,2.17
2018-04-25T21:37:42.275Z,1.50
2018-04-25T21:40:14.976Z,1.90
2018-04-25T21:42:43.928Z,1.77
2018-04-25T21:45:16.513Z,1.40
2018-04-25T21:47:45.787Z,1.77
2018-04-25T21:50:27.218Z,1.73
2018-04-25T21:52:57.095Z,1.83
2018-04-25T21:55:25.589Z,1.90
2018-04-25T21:57:54.343Z,1.70
2018-04-25T22:00:24.524Z,1.77
2018-04-25T22:02:55.519Z,1.47
2018-04-25T22:05:25.746Z,1.63
2018-04-25T22:07:54.523Z,1.93
2018-04-25T22:10:28.031Z,1.70
2018-04-25T22:12:57.624Z,1.93
2018-04-25T22:15:29.808Z,2.20
2018-04-25T22:17:59.713Z,1.90
2018-04-25T22:20:32.050Z,1.60
2018-04-25T22:23:02.377Z,1.50
2018-04-25T22:25:32.916Z,1.90
2018-04-25T22:28:02.896Z,1.93
2018-04-25T22:30:44.252Z,2.00
2018-04-25T22:33:13.033Z,1.97
2018-04-25T22:35:42.527Z,2.00
2018-04-25T22:38:11.415Z,1.87
2018-04-25T22:40:39.919Z,1.67
2018-04-25T22:43:09.561Z,1.60
2018-04-25T22:45:50.898Z,1.80
2018-04-25T22:48:19.348Z,2.30
2018-04-25T22:50:49.357Z,2.03
2018-04-25T22:53:19.231Z,1.53
2018-04-25T22:55:47.693Z,1.53
2018-04-25T22:58:17.115Z,1.80
2018-04-25T23:00:48.980Z,1.43
2018-04-25T23:03:18.479Z,1.80
2018-04-25T23:06:00.245Z,1.47
2018-04-25T23:08:29.383Z,2.07
2018-04-25T23:10:59.331Z,1.60
2018-04-25T23:13:28.923Z,1.80
2018-04-25T23:15:57.655Z,1.60
2018-04-25T23:18:26.204Z,2.23
2018-04-25T23:20:59.269Z,1.47
2018-04-25T23:23:27.997Z,2.03
2018-04-25T23:26:08.888Z,1.80
2018-04-25T23:28:37.648Z,1.87
2018-04-25T23:31:07.251Z,1.90
2018-04-25T23:33:36.313Z,1.80
2018-04-25T23:36:06.267Z,2.20
2018-04-25T23:38:35.495Z,1.40
2018-04-25T23:41:12.815Z,2.00
2018-04-25T23:43:41.521Z,2.07
2018-04-25T23:46:12.053Z,1.80
2018-04-25T23:48:42.021Z,2.00
2018-04-25T23:51:14.105Z,1.70
2018-04-25T23:53:42.579Z,1.83
2018-04-25T23:56:16.469Z,1.70
2018-04-25T23:58:44.960Z,2.30
